createdAt,value
2019-02-23T00:01:27.058Z,4.8
2019-02-23T00:11:27.063Z,3.6
2019-02-23T00:21:26.718Z,4.1
2019-02-23T00:31:27.146Z,5.4
2019-02-23T00:41:25.635Z,3.5
2019-02-23T00:51:26.573Z,3.9
2019-02-23T01:01:26.285Z,4.3
2019-02-23T01:11:27.460Z,3.8
2019-02-23T01:21:29.047Z,4.7
2019-02-23T01:31:28.536Z,3.7
2019-02-23T01:41:26.477Z,4.7
2019-02-23T01:51:25.935Z,5.0
2019-02-23T02:01:27.348Z,4.7
2019-02-23T02:11:26.222Z,4.1
2019-02-23T02:21:27.410Z,4.2
2019-02-23T02:31:25.900Z,4.6
2019-02-23T02:41:28.180Z,4.9
2019-02-23T02:51:25.538Z,5.0
2019-02-23T03:01:28.494Z,5.4
2019-02-23T03:11:25.973Z,4.6
2019-02-23T03:21:25.855Z,4.8
2019-02-23T03:31:26.397Z,4.3
2019-02-23T03:41:26.073Z,5.4
2019-02-23T03:51:25.825Z,4.7
2019-02-23T04:01:28.947Z,4.7
2019-02-23T04:11:26.684Z,5.1
2019-02-23T04:21:29.261Z,5.9
2019-02-23T04:31:26.548Z,4.9
2019-02-23T04:41:26.008Z,5.7
2019-02-23T04:51:29.913Z,4.9
2019-02-23T05:01:27.918Z,4.1
2019-02-23T05:11:26.740Z,5.9
2019-02-23T05:21:27.388Z,5.1
2019-02-23T05:31:26.680Z,5.4
2019-02-23T05:41:28.980Z,5.9
2019-02-23T05:51:38.056Z,5.4
2019-02-23T06:01:27.024Z,6.7
2019-02-23T06:11:26.556Z,5.5
2019-02-23T06:21:30.364Z,5.9
2019-02-23T06:31:25.863Z,6.1
2019-02-23T06:41:28.124Z,6.1
2019-02-23T06:51:26.135Z,6.3
2019-02-23T07:01:27.869Z,5.9
2019-02-23T07:11:26.691Z,6.0
2019-02-23T07:21:27.097Z,5.8
2019-02-23T07:31:26.092Z,6.1
2019-02-23T07:41:25.710Z,5.4
2019-02-23T07:51:27.041Z,6.1
2019-02-23T08:01:26.695Z,5.2
2019-02-23T08:11:27.043Z,5.8
2019-02-23T08:21:26.981Z,6.5
2019-02-23T08:31:27.505Z,5.5
2019-02-23T08:41:26.122Z,4.8
2019-02-23T08:51:27.073Z,4.8
2019-02-23T09:01:26.283Z,5.0
2019-02-23T09:11:26.426Z,4.4
2019-02-23T09:21:26.788Z,4.6
2019-02-23T09:31:27.959Z,4.5
2019-02-23T09:41:28.153Z,3.1
2019-02-23T09:51:27.032Z,3.6
2019-02-23T10:01:26.732Z,3.6
2019-02-23T10:11:33.293Z,2.9
2019-02-23T10:21:31.956Z,2.9
2019-02-23T10:31:32.689Z,2.2
2019-02-23T10:41:33.596Z,2.4
2019-02-23T10:51:33.296Z,2.5
2019-02-23T11:01:26.856Z,2.7
2019-02-23T11:11:26.861Z,2.7
2019-02-23T11:21:26.411Z,3.2
2019-02-23T11:31:26.880Z,2.8
2019-02-23T11:41:26.834Z,3.0
2019-02-23T11:51:26.398Z,2.9
2019-02-23T12:01:26.543Z,3.1
2019-02-23T12:11:27.131Z,2.7
2019-02-23T12:21:26.666Z,2.8
2019-02-23T12:31:26.828Z,3.0
2019-02-23T12:41:27.142Z,3.5
2019-02-23T12:51:27.645Z,3.4
2019-02-23T13:01:33.064Z,3.9
2019-02-23T13:11:26.376Z,3.6
2019-02-23T13:21:26.662Z,3.4
2019-02-23T13:31:30.377Z,3.5
2019-02-23T13:41:26.653Z,4.3
2019-02-23T13:51:26.823Z,4.2
2019-02-23T14:01:26.673Z,5.0
2019-02-23T14:11:27.715Z,4.4
2019-02-23T14:21:26.799Z,3.6
2019-02-23T14:31:27.326Z,4.6
2019-02-23T14:41:28.626Z,3.9
2019-02-23T14:51:27.928Z,4.3
2019-02-23T15:01:27.696Z,4.7
2019-02-23T15:11:26.447Z,4.6
2019-02-23T15:21:26.804Z,4.3
2019-02-23T15:31:26.615Z,5.1
2019-02-23T15:41:26.591Z,4.3
2019-02-23T15:51:26.633Z,5.7
2019-02-23T16:01:27.747Z,5.1
2019-02-23T16:11:27.187Z,6.5
2019-02-23T16:21:26.142Z,6.1
2019-02-23T16:31:25.666Z,6.2
2019-02-23T16:41:26.367Z,5.6
2019-02-23T16:51:26.418Z,6.5
2019-02-23T17:01:25.878Z,6.4
2019-02-23T17:11:26.741Z,6.0
2019-02-23T17:21:27.433Z,7.0
2019-02-23T17:31:26.104Z,6.2
2019-02-23T17:41:25.676Z,9.0
2019-02-23T17:51:26.635Z,10.0
2019-02-23T18:01:26.244Z,12.3
2019-02-23T18:11:26.408Z,11.5
2019-02-23T18:21:27.604Z,12.5
2019-02-23T18:31:26.197Z,13.9
2019-02-23T18:41:27.148Z,17.5
2019-02-23T18:51:28.224Z,20.1
2019-02-23T19:01:27.815Z,19.3
2019-02-23T19:11:26.378Z,18.7
2019-02-23T19:21:26.135Z,16.9
2019-02-23T19:31:25.934Z,17.3
2019-02-23T19:41:28.635Z,13.6
2019-02-23T19:51:26.431Z,14.5
2019-02-23T20:01:25.991Z,16.6
2019-02-23T20:11:27.199Z,15.6
2019-02-23T20:21:26.537Z,14.8
2019-02-23T20:31:26.526Z,14.4
2019-02-23T20:41:26.745Z,17.2
2019-02-23T20:51:26.338Z,15.7
2019-02-23T21:01:32.073Z,14.7
2019-02-23T21:11:32.631Z,16.1
2019-02-23T21:21:26.417Z,15.0
2019-02-23T21:31:31.544Z,15.4
2019-02-23T21:41:32.637Z,14.8
2019-02-23T21:51:32.449Z,16.0
2019-02-23T22:01:25.999Z,16.6
2019-02-23T22:11:27.718Z,19.2
2019-02-23T22:21:26.566Z,20.7
2019-02-23T22:31:26.120Z,19.9
2019-02-23T22:41:29.127Z,19.2
2019-02-23T22:51:28.147Z,23.1
2019-02-23T23:01:31.232Z,17.6
2019-02-23T23:11:28.818Z,20.8
2019-02-23T23:21:28.099Z,22.4
2019-02-23T23:31:26.590Z,21.5
2019-02-23T23:41:26.723Z,22.0
2019-02-23T23:51:25.956Z,18.6
